sensor_id;sensor_type;location;lat;lon;timestamp;P1;durP1;ratioP1;P2;durP2;ratioP2
7823;SDS011;3957;48.61947800;9.05303100;2022-07-29T00:00:04;6.15;;;5.28;;
7823;SDS011;3957;48.61947800;9.05303100;2022-07-29T00:01:26;6.35;;;5.47;;
7823;SDS011;3957;48.61947800;9.05303100;2022-07-29T00:02:47;7.07;;;5.80;;
7823;SDS011;3957;48.61947800;9.05303100;2022-07-29T00:04:08;5.68;;;4.95;;
7823;SDS011;3957;48.61947800;9.05303100;2022-07-29T00:05:28;5.38;;;4.72;;
7823;SDS011;3957;48.61947800;9.05303100;2022-07-29T00:06:49;5.93;;;4.93;;
7823;SDS011;3957;48.61947800;9.05303100;2022-07-29T00:08:10;6.03;;;4.60;;
7823;SDS011;3957;48.61947800;9.05303100;2022-07-29T00:09:31;8.05;;;5.68;;
7823;SDS011;3957;48.61947800;9.05303100;2022-07-29T00:10:52;6.18;;;5.57;;
7823;SDS011;3957;48.61947800;9.05303100;2022-07-29T00:12:13;5.80;;;5.30;;
7823;SDS011;3957;48.61947800;9.05303100;2022-07-29T00:13:34;6.63;;;5.65;;
7823;SDS011;3957;48.61947800;9.05303100;2022-07-29T00:14:55;6.05;;;5.45;;
7823;SDS011;3957;48.61947800;9.05303100;2022-07-29T00:16:16;5.90;;;5.30;;
7823;SDS011;3957;48.61947800;9.05303100;2022-07-29T00:17:37;5.85;;;5.10;;
7823;SDS011;3957;48.61947800;9.05303100;2022-07-29T00:18:58;10.02;;;5.63;;
7823;SDS011;3957;48.61947800;9.05303100;2022-07-29T00:20:19;6.88;;;5.50;;
7823;SDS011;3957;48.61947800;9.05303100;2022-07-29T00:21:39;8.23;;;5.68;;
7823;SDS011;3957;48.61947800;9.05303100;2022-07-29T00:23:00;5.60;;;5.10;;
7823;SDS011;3957;48.61947800;9.05303100;2022-07-29T00:24:21;9.47;;;5.47;;
7823;SDS011;3957;48.61947800;9.05303100;2022-07-29T00:25:42;5.72;;;5.07;;
7823;SDS011;3957;48.61947800;9.05303100;2022-07-29T00:27:02;6.78;;;5.40;;
7823;SDS011;3957;48.61947800;9.05303100;2022-07-29T00:28:23;6.85;;;5.10;;
7823;SDS011;3957;48.61947800;9.05303100;2022-07-29T00:29:44;7.00;;;5.15;;
7823;SDS011;3957;48.61947800;9.05303100;2022-07-29T00:31:05;6.60;;;5.15;;
7823;SDS011;3957;48.61947800;9.05303100;2022-07-29T00:32:26;7.22;;;5.15;;
7823;SDS011;3957;48.61947800;9.05303100;2022-07-29T00:33:46;5.88;;;5.28;;
7823;SDS011;3957;48.61947800;9.05303100;2022-07-29T00:35:07;6.40;;;5.00;;
7823;SDS011;3957;48.61947800;9.05303100;2022-07-29T00:36:47;7.97;;;5.17;;
7823;SDS011;3957;48.61947800;9.05303100;2022-07-29T00:38:08;5.80;;;4.68;;
7823;SDS011;3957;48.61947800;9.05303100;2022-07-29T00:39:29;5.03;;;4.53;;
7823;SDS011;3957;48.61947800;9.05303100;2022-07-29T00:40:49;4.85;;;4.30;;
7823;SDS011;3957;48.61947800;9.05303100;2022-07-29T00:42:10;5.03;;;4.53;;
7823;SDS011;3957;48.61947800;9.05303100;2022-07-29T00:43:31;7.25;;;4.70;;
7823;SDS011;3957;48.61947800;9.05303100;2022-07-29T00:44:52;4.80;;;4.30;;
7823;SDS011;3957;48.61947800;9.05303100;2022-07-29T00:46:13;6.80;;;4.70;;
7823;SDS011;3957;48.61947800;9.05303100;2022-07-29T00:47:34;6.75;;;4.35;;
7823;SDS011;3957;48.61947800;9.05303100;2022-07-29T00:48:54;6.18;;;5.05;;
7823;SDS011;3957;48.61947800;9.05303100;2022-07-29T00:50:15;5.03;;;4.43;;
7823;SDS011;3957;48.61947800;9.05303100;2022-07-29T00:51:36;5.75;;;4.93;;
7823;SDS011;3957;48.61947800;9.05303100;2022-07-29T00:52:58;7.50;;;4.78;;
7823;SDS011;3957;48.61947800;9.05303100;2022-07-29T00:54:19;5.70;;;4.40;;
7823;SDS011;3957;48.61947800;9.05303100;2022-07-29T00:55:40;5.20;;;4.32;;
7823;SDS011;3957;48.61947800;9.05303100;2022-07-29T00:57:01;4.57;;;4.18;;
7823;SDS011;3957;48.61947800;9.05303100;2022-07-29T00:58:22;4.55;;;4.15;;
7823;SDS011;3957;48.61947800;9.05303100;2022-07-29T00:59:44;5.17;;;4.40;;
7823;SDS011;3957;48.61947800;9.05303100;2022-07-29T01:01:05;4.93;;;4.00;;
7823;SDS011;3957;48.61947800;9.05303100;2022-07-29T01:02:25;4.10;;;3.70;;
7823;SDS011;3957;48.61947800;9.05303100;2022-07-29T01:03:47;6.68;;;4.55;;
7823;SDS011;3957;48.61947800;9.05303100;2022-07-29T01:05:07;4.60;;;3.80;;
7823;SDS011;3957;48.61947800;9.05303100;2022-07-29T01:06:28;3.85;;;3.55;;
7823;SDS011;3957;48.61947800;9.05303100;2022-07-29T01:07:51;4.72;;;4.22;;
7823;SDS011;3957;48.61947800;9.05303100;2022-07-29T01:09:14;4.57;;;3.85;;
7823;SDS011;3957;48.61947800;9.05303100;2022-07-29T01:10:36;4.63;;;3.88;;
7823;SDS011;3957;48.61947800;9.05303100;2022-07-29T01:11:59;5.47;;;3.90;;
7823;SDS011;3957;48.61947800;9.05303100;2022-07-29T01:13:22;4.20;;;3.80;;
7823;SDS011;3957;48.61947800;9.05303100;2022-07-29T01:14:43;5.90;;;4.15;;
7823;SDS011;3957;48.61947800;9.05303100;2022-07-29T01:16:13;5.07;;;4.07;;
7823;SDS011;3957;48.61947800;9.05303100;2022-07-29T01:17:46;4.55;;;3.70;;
7823;SDS011;3957;48.61947800;9.05303100;2022-07-29T01:21:13;6.00;;;4.43;;
7823;SDS011;3957;48.61947800;9.05303100;2022-07-29T01:23:09;4.18;;;3.75;;
7823;SDS011;3957;48.61947800;9.05303100;2022-07-29T01:24:46;4.45;;;4.03;;
7823;SDS011;3957;48.61947800;9.05303100;2022-07-29T01:29:55;4.90;;;4.03;;
7823;SDS011;3957;48.61947800;9.05303100;2022-07-29T01:31:20;4.90;;;4.00;;
7823;SDS011;3957;48.61947800;9.05303100;2022-07-29T01:32:48;5.45;;;4.38;;
7823;SDS011;3957;48.61947800;9.05303100;2022-07-29T01:34:17;4.40;;;4.00;;
7823;SDS011;3957;48.61947800;9.05303100;2022-07-29T01:35:42;4.53;;;3.70;;
7823;SDS011;3957;48.61947800;9.05303100;2022-07-29T01:38:54;4.85;;;3.78;;
7823;SDS011;3957;48.61947800;9.05303100;2022-07-29T01:40:27;4.07;;;3.67;;
7823;SDS011;3957;48.61947800;9.05303100;2022-07-29T01:41:58;4.60;;;3.88;;
7823;SDS011;3957;48.61947800;9.05303100;2022-07-29T01:43:31;5.03;;;4.05;;
7823;SDS011;3957;48.61947800;9.05303100;2022-07-29T01:45:00;5.68;;;4.30;;
7823;SDS011;3957;48.61947800;9.05303100;2022-07-29T01:46:36;4.20;;;3.80;;
7823;SDS011;3957;48.61947800;9.05303100;2022-07-29T01:48:04;4.03;;;3.55;;
7823;SDS011;3957;48.61947800;9.05303100;2022-07-29T01:49:31;4.25;;;3.80;;
7823;SDS011;3957;48.61947800;9.05303100;2022-07-29T01:52:39;4.25;;;3.70;;
7823;SDS011;3957;48.61947800;9.05303100;2022-07-29T01:54:16;4.63;;;4.22;;
7823;SDS011;3957;48.61947800;9.05303100;2022-07-29T01:55:42;4.40;;;4.00;;
7823;SDS011;3957;48.61947800;9.05303100;2022-07-29T01:57:06;4.65;;;3.78;;
7823;SDS011;3957;48.61947800;9.05303100;2022-07-29T01:58:29;5.07;;;4.10;;
7823;SDS011;3957;48.61947800;9.05303100;2022-07-29T01:59:53;4.55;;;4.07;;
7823;SDS011;3957;48.61947800;9.05303100;2022-07-29T02:01:15;4.72;;;3.90;;
7823;SDS011;3957;48.61947800;9.05303100;2022-07-29T02:02:37;5.95;;;4.00;;
7823;SDS011;3957;48.61947800;9.05303100;2022-07-29T02:04:02;4.30;;;3.83;;
7823;SDS011;3957;48.61947800;9.05303100;2022-07-29T02:05:25;4.55;;;3.55;;
7823;SDS011;3957;48.61947800;9.05303100;2022-07-29T02:06:49;5.63;;;3.97;;
7823;SDS011;3957;48.61947800;9.05303100;2022-07-29T02:08:13;4.30;;;3.85;;
7823;SDS011;3957;48.61947800;9.05303100;2022-07-29T02:09:35;5.07;;;4.05;;
7823;SDS011;3957;48.61947800;9.05303100;2022-07-29T02:10:58;5.35;;;4.05;;
7823;SDS011;3957;48.61947800;9.05303100;2022-07-29T02:12:20;4.65;;;3.95;;
7823;SDS011;3957;48.61947800;9.05303100;2022-07-29T02:13:43;4.32;;;3.90;;
7823;SDS011;3957;48.61947800;9.05303100;2022-07-29T02:15:06;5.05;;;3.67;;
7823;SDS011;3957;48.61947800;9.05303100;2022-07-29T02:16:29;4.40;;;3.88;;
7823;SDS011;3957;48.61947800;9.05303100;2022-07-29T02:17:56;4.10;;;3.70;;
7823;SDS011;3957;48.61947800;9.05303100;2022-07-29T02:19:22;5.25;;;4.28;;
7823;SDS011;3957;48.61947800;9.05303100;2022-07-29T02:20:47;5.30;;;4.50;;
7823;SDS011;3957;48.61947800;9.05303100;2022-07-29T02:22:09;4.20;;;3.80;;
7823;SDS011;3957;48.61947800;9.05303100;2022-07-29T02:23:32;4.60;;;4.20;;
7823;SDS011;3957;48.61947800;9.05303100;2022-07-29T02:24:56;5.72;;;3.97;;
7823;SDS011;3957;48.61947800;9.05303100;2022-07-29T02:26:22;4.10;;;3.47;;
7823;SDS011;3957;48.61947800;9.05303100;2022-07-29T02:27:44;4.57;;;4.03;;
7823;SDS011;3957;48.61947800;9.05303100;2022-07-29T02:29:07;4.72;;;4.30;;
7823;SDS011;3957;48.61947800;9.05303100;2022-07-29T02:30:30;4.90;;;4.15;;
7823;SDS011;3957;48.61947800;9.05303100;2022-07-29T02:31:52;5.07;;;3.95;;
7823;SDS011;3957;48.61947800;9.05303100;2022-07-29T02:33:14;4.20;;;3.90;;
7823;SDS011;3957;48.61947800;9.05303100;2022-07-29T02:34:37;4.72;;;3.90;;
7823;SDS011;3957;48.61947800;9.05303100;2022-07-29T02:36:00;7.22;;;4.10;;
7823;SDS011;3957;48.61947800;9.05303100;2022-07-29T02:37:22;4.60;;;4.10;;
7823;SDS011;3957;48.61947800;9.05303100;2022-07-29T02:38:44;4.25;;;3.85;;
7823;SDS011;3957;48.61947800;9.05303100;2022-07-29T02:40:11;4.80;;;4.07;;
7823;SDS011;3957;48.61947800;9.05303100;2022-07-29T02:41:38;4.28;;;3.88;;
7823;SDS011;3957;48.61947800;9.05303100;2022-07-29T02:43:02;5.30;;;3.80;;
7823;SDS011;3957;48.61947800;9.05303100;2022-07-29T02:44:27;4.30;;;3.90;;
7823;SDS011;3957;48.61947800;9.05303100;2022-07-29T02:45:49;6.13;;;4.03;;
7823;SDS011;3957;48.61947800;9.05303100;2022-07-29T02:47:16;4.30;;;3.90;;
7823;SDS011;3957;48.61947800;9.05303100;2022-07-29T02:48:48;4.07;;;3.67;;
7823;SDS011;3957;48.61947800;9.05303100;2022-07-29T02:50:17;4.20;;;3.80;;
7823;SDS011;3957;48.61947800;9.05303100;2022-07-29T02:51:41;5.53;;;3.78;;
7823;SDS011;3957;48.61947800;9.05303100;2022-07-29T02:53:07;4.15;;;3.30;;
7823;SDS011;3957;48.61947800;9.05303100;2022-07-29T02:55:02;5.10;;;3.50;;
7823;SDS011;3957;48.61947800;9.05303100;2022-07-29T02:56:30;4.22;;;3.60;;
7823;SDS011;3957;48.61947800;9.05303100;2022-07-29T02:59:50;3.95;;;3.40;;
7823;SDS011;3957;48.61947800;9.05303100;2022-07-29T03:01:16;4.10;;;3.70;;
7823;SDS011;3957;48.61947800;9.05303100;2022-07-29T03:02:44;4.88;;;3.40;;
7823;SDS011;3957;48.61947800;9.05303100;2022-07-29T03:04:08;3.53;;;3.22;;
7823;SDS011;3957;48.61947800;9.05303100;2022-07-29T03:05:30;3.25;;;2.88;;
7823;SDS011;3957;48.61947800;9.05303100;2022-07-29T03:06:52;4.88;;;3.67;;
7823;SDS011;3957;48.61947800;9.05303100;2022-07-29T03:08:13;3.35;;;2.90;;
7823;SDS011;3957;48.61947800;9.05303100;2022-07-29T03:09:36;3.60;;;3.08;;
7823;SDS011;3957;48.61947800;9.05303100;2022-07-29T03:10:58;3.33;;;3.00;;
7823;SDS011;3957;48.61947800;9.05303100;2022-07-29T03:12:20;3.95;;;3.22;;
7823;SDS011;3957;48.61947800;9.05303100;2022-07-29T03:13:42;3.28;;;2.83;;
7823;SDS011;3957;48.61947800;9.05303100;2022-07-29T03:15:04;3.55;;;3.25;;
7823;SDS011;3957;48.61947800;9.05303100;2022-07-29T03:16:26;3.95;;;3.25;;
7823;SDS011;3957;48.61947800;9.05303100;2022-07-29T03:17:48;3.72;;;3.30;;
7823;SDS011;3957;48.61947800;9.05303100;2022-07-29T03:19:09;3.75;;;3.33;;
7823;SDS011;3957;48.61947800;9.05303100;2022-07-29T03:20:31;3.20;;;2.90;;
7823;SDS011;3957;48.61947800;9.05303100;2022-07-29T03:21:52;3.85;;;3.45;;
7823;SDS011;3957;48.61947800;9.05303100;2022-07-29T03:23:17;3.60;;;3.15;;
7823;SDS011;3957;48.61947800;9.05303100;2022-07-29T03:24:40;2.92;;;2.72;;
7823;SDS011;3957;48.61947800;9.05303100;2022-07-29T03:26:01;3.60;;;3.30;;
7823;SDS011;3957;48.61947800;9.05303100;2022-07-29T03:27:22;3.35;;;3.05;;
7823;SDS011;3957;48.61947800;9.05303100;2022-07-29T03:28:43;3.60;;;3.30;;
7823;SDS011;3957;48.61947800;9.05303100;2022-07-29T03:30:04;3.60;;;3.30;;
7823;SDS011;3957;48.61947800;9.05303100;2022-07-29T03:31:26;4.20;;;3.28;;
7823;SDS011;3957;48.61947800;9.05303100;2022-07-29T03:32:47;4.18;;;3.78;;
7823;SDS011;3957;48.61947800;9.05303100;2022-07-29T03:34:07;4.50;;;3.42;;
7823;SDS011;3957;48.61947800;9.05303100;2022-07-29T03:35:28;3.70;;;3.40;;
7823;SDS011;3957;48.61947800;9.05303100;2022-07-29T03:36:51;3.78;;;3.38;;
7823;SDS011;3957;48.61947800;9.05303100;2022-07-29T03:38:12;6.05;;;3.78;;
7823;SDS011;3957;48.61947800;9.05303100;2022-07-29T03:39:36;5.83;;;4.00;;
7823;SDS011;3957;48.61947800;9.05303100;2022-07-29T03:41:05;5.20;;;3.75;;
7823;SDS011;3957;48.61947800;9.05303100;2022-07-29T03:42:30;4.35;;;3.33;;
7823;SDS011;3957;48.61947800;9.05303100;2022-07-29T03:43:53;5.00;;;3.50;;
7823;SDS011;3957;48.61947800;9.05303100;2022-07-29T03:45:15;4.18;;;3.78;;
7823;SDS011;3957;48.61947800;9.05303100;2022-07-29T03:46:38;4.05;;;3.30;;
7823;SDS011;3957;48.61947800;9.05303100;2022-07-29T03:48:07;3.90;;;3.50;;
7823;SDS011;3957;48.61947800;9.05303100;2022-07-29T03:49:30;3.38;;;3.08;;
7823;SDS011;3957;48.61947800;9.05303100;2022-07-29T03:50:52;3.88;;;3.42;;
7823;SDS011;3957;48.61947800;9.05303100;2022-07-29T03:52:13;3.60;;;3.30;;
7823;SDS011;3957;48.61947800;9.05303100;2022-07-29T03:53:34;5.88;;;3.60;;
7823;SDS011;3957;48.61947800;9.05303100;2022-07-29T03:54:57;3.35;;;2.90;;
7823;SDS011;3957;48.61947800;9.05303100;2022-07-29T03:56:19;5.25;;;3.20;;
7823;SDS011;3957;48.61947800;9.05303100;2022-07-29T03:57:42;3.33;;;3.03;;
7823;SDS011;3957;48.61947800;9.05303100;2022-07-29T03:59:05;3.45;;;3.10;;
7823;SDS011;3957;48.61947800;9.05303100;2022-07-29T04:00:27;3.28;;;2.97;;
7823;SDS011;3957;48.61947800;9.05303100;2022-07-29T04:01:48;3.83;;;3.40;;
7823;SDS011;3957;48.61947800;9.05303100;2022-07-29T04:03:10;4.03;;;3.33;;
7823;SDS011;3957;48.61947800;9.05303100;2022-07-29T04:04:32;3.42;;;3.13;;
7823;SDS011;3957;48.61947800;9.05303100;2022-07-29T04:06:01;3.97;;;3.20;;
7823;SDS011;3957;48.61947800;9.05303100;2022-07-29T04:07:23;4.53;;;3.60;;
7823;SDS011;3957;48.61947800;9.05303100;2022-07-29T04:08:44;3.72;;;3.15;;
7823;SDS011;3957;48.61947800;9.05303100;2022-07-29T04:10:05;3.33;;;3.03;;
7823;SDS011;3957;48.61947800;9.05303100;2022-07-29T04:11:27;3.65;;;3.00;;
7823;SDS011;3957;48.61947800;9.05303100;2022-07-29T04:12:48;2.92;;;2.70;;
7823;SDS011;3957;48.61947800;9.05303100;2022-07-29T04:14:09;3.17;;;2.88;;
7823;SDS011;3957;48.61947800;9.05303100;2022-07-29T04:15:30;3.45;;;2.58;;
7823;SDS011;3957;48.61947800;9.05303100;2022-07-29T04:16:51;3.28;;;2.95;;
7823;SDS011;3957;48.61947800;9.05303100;2022-07-29T04:18:13;3.83;;;2.70;;
7823;SDS011;3957;48.61947800;9.05303100;2022-07-29T04:19:33;3.38;;;3.08;;
7823;SDS011;3957;48.61947800;9.05303100;2022-07-29T04:20:54;3.20;;;2.90;;
7823;SDS011;3957;48.61947800;9.05303100;2022-07-29T04:22:15;3.20;;;2.90;;
7823;SDS011;3957;48.61947800;9.05303100;2022-07-29T04:23:36;3.30;;;3.00;;
7823;SDS011;3957;48.61947800;9.05303100;2022-07-29T04:24:58;2.78;;;2.58;;
7823;SDS011;3957;48.61947800;9.05303100;2022-07-29T04:26:20;2.92;;;2.65;;
7823;SDS011;3957;48.61947800;9.05303100;2022-07-29T04:27:41;3.10;;;2.78;;
7823;SDS011;3957;48.61947800;9.05303100;2022-07-29T04:29:20;3.20;;;2.85;;
7823;SDS011;3957;48.61947800;9.05303100;2022-07-29T04:30:41;3.60;;;3.00;;
7823;SDS011;3957;48.61947800;9.05303100;2022-07-29T04:32:01;3.45;;;3.15;;
7823;SDS011;3957;48.61947800;9.05303100;2022-07-29T04:33:22;4.43;;;3.00;;
7823;SDS011;3957;48.61947800;9.05303100;2022-07-29T04:34:43;3.50;;;3.20;;
7823;SDS011;3957;48.61947800;9.05303100;2022-07-29T04:36:05;6.65;;;4.20;;
7823;SDS011;3957;48.61947800;9.05303100;2022-07-29T04:37:26;5.10;;;3.83;;
7823;SDS011;3957;48.61947800;9.05303100;2022-07-29T04:38:47;3.90;;;2.88;;
7823;SDS011;3957;48.61947800;9.05303100;2022-07-29T04:40:08;3.88;;;3.20;;
7823;SDS011;3957;48.61947800;9.05303100;2022-07-29T04:41:29;3.40;;;3.10;;
7823;SDS011;3957;48.61947800;9.05303100;2022-07-29T04:42:50;2.90;;;2.70;;
7823;SDS011;3957;48.61947800;9.05303100;2022-07-29T04:44:10;3.45;;;3.00;;
7823;SDS011;3957;48.61947800;9.05303100;2022-07-29T04:45:31;4.80;;;3.00;;
7823;SDS011;3957;48.61947800;9.05303100;2022-07-29T04:46:52;4.13;;;3.40;;
7823;SDS011;3957;48.61947800;9.05303100;2022-07-29T04:48:13;3.33;;;3.03;;
7823;SDS011;3957;48.61947800;9.05303100;2022-07-29T04:49:33;4.18;;;3.78;;
7823;SDS011;3957;48.61947800;9.05303100;2022-07-29T04:50:54;5.25;;;3.70;;
7823;SDS011;3957;48.61947800;9.05303100;2022-07-29T04:52:16;4.15;;;3.63;;
7823;SDS011;3957;48.61947800;9.05303100;2022-07-29T04:53:37;4.50;;;3.40;;
7823;SDS011;3957;48.61947800;9.05303100;2022-07-29T04:54:58;3.67;;;3.38;;
7823;SDS011;3957;48.61947800;9.05303100;2022-07-29T04:56:19;3.45;;;3.15;;
7823;SDS011;3957;48.61947800;9.05303100;2022-07-29T04:57:39;2.80;;;2.55;;
7823;SDS011;3957;48.61947800;9.05303100;2022-07-29T04:59:00;3.20;;;2.90;;
7823;SDS011;3957;48.61947800;9.05303100;2022-07-29T05:00:21;3.60;;;3.25;;
7823;SDS011;3957;48.61947800;9.05303100;2022-07-29T05:01:43;3.25;;;2.95;;
7823;SDS011;3957;48.61947800;9.05303100;2022-07-29T05:03:04;4.10;;;3.30;;
7823;SDS011;3957;48.61947800;9.05303100;2022-07-29T05:04:25;2.75;;;2.55;;
7823;SDS011;3957;48.61947800;9.05303100;2022-07-29T05:05:45;4.00;;;2.50;;
7823;SDS011;3957;48.61947800;9.05303100;2022-07-29T05:07:06;2.92;;;2.47;;
7823;SDS011;3957;48.61947800;9.05303100;2022-07-29T05:08:27;3.20;;;2.40;;
7823;SDS011;3957;48.61947800;9.05303100;2022-07-29T05:09:48;2.40;;;2.20;;
7823;SDS011;3957;48.61947800;9.05303100;2022-07-29T05:11:09;2.42;;;2.22;;
7823;SDS011;3957;48.61947800;9.05303100;2022-07-29T05:12:29;2.35;;;2.13;;
7823;SDS011;3957;48.61947800;9.05303100;2022-07-29T05:13:50;2.20;;;2.00;;
7823;SDS011;3957;48.61947800;9.05303100;2022-07-29T05:15:11;2.10;;;1.90;;
7823;SDS011;3957;48.61947800;9.05303100;2022-07-29T05:16:31;2.20;;;2.00;;
7823;SDS011;3957;48.61947800;9.05303100;2022-07-29T05:17:52;2.42;;;2.17;;
7823;SDS011;3957;48.61947800;9.05303100;2022-07-29T05:19:13;2.80;;;2.00;;
7823;SDS011;3957;48.61947800;9.05303100;2022-07-29T05:20:34;2.00;;;1.80;;
7823;SDS011;3957;48.61947800;9.05303100;2022-07-29T05:21:55;1.80;;;1.70;;
7823;SDS011;3957;48.61947800;9.05303100;2022-07-29T05:23:15;1.60;;;1.50;;
7823;SDS011;3957;48.61947800;9.05303100;2022-07-29T05:24:36;1.88;;;1.70;;
7823;SDS011;3957;48.61947800;9.05303100;2022-07-29T05:25:57;2.30;;;2.10;;
7823;SDS011;3957;48.61947800;9.05303100;2022-07-29T05:27:18;3.08;;;2.00;;
7823;SDS011;3957;48.61947800;9.05303100;2022-07-29T05:28:39;3.63;;;2.20;;
7823;SDS011;3957;48.61947800;9.05303100;2022-07-29T05:29:59;2.30;;;2.10;;
7823;SDS011;3957;48.61947800;9.05303100;2022-07-29T05:31:20;2.95;;;2.10;;
7823;SDS011;3957;48.61947800;9.05303100;2022-07-29T05:32:41;2.90;;;2.13;;
7823;SDS011;3957;48.61947800;9.05303100;2022-07-29T05:34:01;3.35;;;2.40;;
7823;SDS011;3957;48.61947800;9.05303100;2022-07-29T05:35:22;2.55;;;2.35;;
7823;SDS011;3957;48.61947800;9.05303100;2022-07-29T05:36:43;4.53;;;2.70;;
7823;SDS011;3957;48.61947800;9.05303100;2022-07-29T05:38:04;2.40;;;2.20;;
7823;SDS011;3957;48.61947800;9.05303100;2022-07-29T05:39:25;2.65;;;2.20;;
7823;SDS011;3957;48.61947800;9.05303100;2022-07-29T05:40:45;2.25;;;2.05;;
7823;SDS011;3957;48.61947800;9.05303100;2022-07-29T05:42:09;2.40;;;2.20;;
7823;SDS011;3957;48.61947800;9.05303100;2022-07-29T05:43:30;2.95;;;2.15;;
7823;SDS011;3957;48.61947800;9.05303100;2022-07-29T05:46:13;2.25;;;2.05;;
7823;SDS011;3957;48.61947800;9.05303100;2022-07-29T05:47:34;2.30;;;2.10;;
7823;SDS011;3957;48.61947800;9.05303100;2022-07-29T05:48:55;2.70;;;2.13;;
7823;SDS011;3957;48.61947800;9.05303100;2022-07-29T05:50:16;3.83;;;2.60;;
7823;SDS011;3957;48.61947800;9.05303100;2022-07-29T05:51:37;2.30;;;2.10;;
7823;SDS011;3957;48.61947800;9.05303100;2022-07-29T05:52:58;3.25;;;2.67;;
7823;SDS011;3957;48.61947800;9.05303100;2022-07-29T05:54:18;2.22;;;2.03;;
7823;SDS011;3957;48.61947800;9.05303100;2022-07-29T05:55:39;2.97;;;2.20;;
7823;SDS011;3957;48.61947800;9.05303100;2022-07-29T05:57:00;2.33;;;2.13;;
7823;SDS011;3957;48.61947800;9.05303100;2022-07-29T05:58:21;2.70;;;1.90;;
7823;SDS011;3957;48.61947800;9.05303100;2022-07-29T05:59:41;2.15;;;1.90;;
7823;SDS011;3957;48.61947800;9.05303100;2022-07-29T06:01:02;2.28;;;2.08;;
7823;SDS011;3957;48.61947800;9.05303100;2022-07-29T06:02:23;2.30;;;2.10;;
7823;SDS011;3957;48.61947800;9.05303100;2022-07-29T06:03:44;2.53;;;2.13;;
7823;SDS011;3957;48.61947800;9.05303100;2022-07-29T06:05:05;2.17;;;1.95;;
7823;SDS011;3957;48.61947800;9.05303100;2022-07-29T06:06:27;2.58;;;2.38;;
7823;SDS011;3957;48.61947800;9.05303100;2022-07-29T06:07:48;4.28;;;1.90;;
7823;SDS011;3957;48.61947800;9.05303100;2022-07-29T06:09:09;3.20;;;2.20;;
7823;SDS011;3957;48.61947800;9.05303100;2022-07-29T06:10:30;2.90;;;2.28;;
7823;SDS011;3957;48.61947800;9.05303100;2022-07-29T06:11:50;2.05;;;1.85;;
7823;SDS011;3957;48.61947800;9.05303100;2022-07-29T06:13:12;2.03;;;1.90;;
7823;SDS011;3957;48.61947800;9.05303100;2022-07-29T06:14:33;2.45;;;2.00;;
7823;SDS011;3957;48.61947800;9.05303100;2022-07-29T06:15:55;2.97;;;2.20;;
7823;SDS011;3957;48.61947800;9.05303100;2022-07-29T06:17:16;2.20;;;2.00;;
7823;SDS011;3957;48.61947800;9.05303100;2022-07-29T06:18:37;2.13;;;1.92;;
7823;SDS011;3957;48.61947800;9.05303100;2022-07-29T06:19:57;3.28;;;2.10;;
7823;SDS011;3957;48.61947800;9.05303100;2022-07-29T06:21:18;2.80;;;1.90;;
7823;SDS011;3957;48.61947800;9.05303100;2022-07-29T06:22:39;3.33;;;1.90;;
7823;SDS011;3957;48.61947800;9.05303100;2022-07-29T06:23:59;2.15;;;1.90;;
7823;SDS011;3957;48.61947800;9.05303100;2022-07-29T06:25:20;4.40;;;2.33;;
7823;SDS011;3957;48.61947800;9.05303100;2022-07-29T06:26:41;1.70;;;1.60;;
7823;SDS011;3957;48.61947800;9.05303100;2022-07-29T06:28:03;2.58;;;1.92;;
7823;SDS011;3957;48.61947800;9.05303100;2022-07-29T06:29:24;2.60;;;1.92;;
7823;SDS011;3957;48.61947800;9.05303100;2022-07-29T06:30:45;2.90;;;1.90;;
7823;SDS011;3957;48.61947800;9.05303100;2022-07-29T06:32:05;2.08;;;1.70;;
7823;SDS011;3957;48.61947800;9.05303100;2022-07-29T06:33:26;2.88;;;2.30;;
7823;SDS011;3957;48.61947800;9.05303100;2022-07-29T06:34:47;2.80;;;2.28;;
7823;SDS011;3957;48.61947800;9.05303100;2022-07-29T06:36:08;2.70;;;2.05;;
7823;SDS011;3957;48.61947800;9.05303100;2022-07-29T06:37:29;2.70;;;1.88;;
7823;SDS011;3957;48.61947800;9.05303100;2022-07-29T06:38:50;2.38;;;2.10;;
7823;SDS011;3957;48.61947800;9.05303100;2022-07-29T06:40:11;1.98;;;1.80;;
7823;SDS011;3957;48.61947800;9.05303100;2022-07-29T06:41:50;2.45;;;1.90;;
7823;SDS011;3957;48.61947800;9.05303100;2022-07-29T06:43:11;5.13;;;2.35;;
7823;SDS011;3957;48.61947800;9.05303100;2022-07-29T06:44:32;2.20;;;1.95;;
7823;SDS011;3957;48.61947800;9.05303100;2022-07-29T06:45:56;2.10;;;1.90;;
7823;SDS011;3957;48.61947800;9.05303100;2022-07-29T06:47:16;2.53;;;2.25;;
7823;SDS011;3957;48.61947800;9.05303100;2022-07-29T06:48:37;3.15;;;2.80;;
7823;SDS011;3957;48.61947800;9.05303100;2022-07-29T06:49:58;2.50;;;1.95;;
7823;SDS011;3957;48.61947800;9.05303100;2022-07-29T06:51:20;3.78;;;2.47;;
7823;SDS011;3957;48.61947800;9.05303100;2022-07-29T06:52:41;2.10;;;1.90;;
7823;SDS011;3957;48.61947800;9.05303100;2022-07-29T06:54:02;2.43;;;1.87;;
7823;SDS011;3957;48.61947800;9.05303100;2022-07-29T06:55:25;2.30;;;1.70;;
7823;SDS011;3957;48.61947800;9.05303100;2022-07-29T06:56:46;2.25;;;2.05;;
7823;SDS011;3957;48.61947800;9.05303100;2022-07-29T06:58:07;2.72;;;2.30;;
7823;SDS011;3957;48.61947800;9.05303100;2022-07-29T06:59:29;2.60;;;2.40;;
7823;SDS011;3957;48.61947800;9.05303100;2022-07-29T07:00:50;2.42;;;2.10;;
7823;SDS011;3957;48.61947800;9.05303100;2022-07-29T07:02:10;2.50;;;2.30;;
7823;SDS011;3957;48.61947800;9.05303100;2022-07-29T07:03:31;3.92;;;2.65;;
7823;SDS011;3957;48.61947800;9.05303100;2022-07-29T07:04:52;6.20;;;2.58;;
7823;SDS011;3957;48.61947800;9.05303100;2022-07-29T07:06:13;2.92;;;2.70;;
7823;SDS011;3957;48.61947800;9.05303100;2022-07-29T07:07:34;2.65;;;2.42;;
7823;SDS011;3957;48.61947800;9.05303100;2022-07-29T07:08:55;3.95;;;2.63;;
7823;SDS011;3957;48.61947800;9.05303100;2022-07-29T07:10:15;2.42;;;2.20;;
7823;SDS011;3957;48.61947800;9.05303100;2022-07-29T07:11:36;2.47;;;2.22;;
7823;SDS011;3957;48.61947800;9.05303100;2022-07-29T07:12:57;2.88;;;2.47;;
7823;SDS011;3957;48.61947800;9.05303100;2022-07-29T07:14:18;2.83;;;2.50;;
7823;SDS011;3957;48.61947800;9.05303100;2022-07-29T07:15:38;4.07;;;2.70;;
7823;SDS011;3957;48.61947800;9.05303100;2022-07-29T07:16:59;2.90;;;2.63;;
7823;SDS011;3957;48.61947800;9.05303100;2022-07-29T07:18:24;2.80;;;2.50;;
7823;SDS011;3957;48.61947800;9.05303100;2022-07-29T07:19:45;2.63;;;2.40;;
7823;SDS011;3957;48.61947800;9.05303100;2022-07-29T07:21:05;2.83;;;2.53;;
7823;SDS011;3957;48.61947800;9.05303100;2022-07-29T07:22:26;3.30;;;2.90;;
7823;SDS011;3957;48.61947800;9.05303100;2022-07-29T07:23:47;3.67;;;2.63;;
7823;SDS011;3957;48.61947800;9.05303100;2022-07-29T07:25:08;3.88;;;2.60;;
7823;SDS011;3957;48.61947800;9.05303100;2022-07-29T07:26:29;2.75;;;2.55;;
7823;SDS011;3957;48.61947800;9.05303100;2022-07-29T07:27:50;2.78;;;2.58;;
7823;SDS011;3957;48.61947800;9.05303100;2022-07-29T07:29:10;4.07;;;2.63;;
7823;SDS011;3957;48.61947800;9.05303100;2022-07-29T07:30:32;3.70;;;2.60;;
7823;SDS011;3957;48.61947800;9.05303100;2022-07-29T07:31:52;3.60;;;2.60;;
7823;SDS011;3957;48.61947800;9.05303100;2022-07-29T07:33:13;2.80;;;2.60;;
7823;SDS011;3957;48.61947800;9.05303100;2022-07-29T07:34:34;2.83;;;2.40;;
7823;SDS011;3957;48.61947800;9.05303100;2022-07-29T07:35:55;3.03;;;2.58;;